sensor_id;sensor_type;location;lat;lon;timestamp;pressure;altitude;pressure_sealevel;temperature;humidity
71764;BME280;59602;52.142;5.408;2023-03-31T00:01:06;100451.63;;;10.61;84.51
71764;BME280;59602;52.142;5.408;2023-03-31T00:03:33;100448.13;;;10.61;84.64
71764;BME280;59602;52.142;5.408;2023-03-31T00:06:05;100439.97;;;10.61;85.10
71764;BME280;59602;52.142;5.408;2023-03-31T00:08:34;100432.97;;;10.59;84.94
71764;BME280;59602;52.142;5.408;2023-03-31T00:11:05;100426.00;;;10.58;84.96
71764;BME280;59602;52.142;5.408;2023-03-31T00:13:36;100420.94;;;10.57;85.46
71764;BME280;59602;52.142;5.408;2023-03-31T00:16:06;100413.94;;;10.59;85.52
71764;BME280;59602;52.142;5.408;2023-03-31T00:18:34;100406.59;;;10.56;85.75
71764;BME280;59602;52.142;5.408;2023-03-31T00:21:10;100410.06;;;10.53;85.68
71764;BME280;59602;52.142;5.408;2023-03-31T00:23:53;100402.28;;;10.55;86.02
71764;BME280;59602;52.142;5.408;2023-03-31T00:26:20;100399.19;;;10.57;86.10
71764;BME280;59602;52.142;5.408;2023-03-31T00:28:59;100389.47;;;10.56;86.12
71764;BME280;59602;52.142;5.408;2023-03-31T00:31:27;100383.25;;;10.55;86.15
71764;BME280;59602;52.142;5.408;2023-03-31T00:33:55;100373.16;;;10.56;86.73
71764;BME280;59602;52.142;5.408;2023-03-31T00:36:30;100367.34;;;10.57;86.54
71764;BME280;59602;52.142;5.408;2023-03-31T00:39:14;100360.75;;;10.58;86.62
71764;BME280;59602;52.142;5.408;2023-03-31T00:41:41;100361.91;;;10.57;87.04
71764;BME280;59602;52.142;5.408;2023-03-31T00:44:16;100356.84;;;10.56;86.97
71764;BME280;59602;52.142;5.408;2023-03-31T00:49:31;100345.97;;;10.56;86.96
71764;BME280;59602;52.142;5.408;2023-03-31T00:52:06;100336.25;;;10.62;87.35
71764;BME280;59602;52.142;5.408;2023-03-31T00:54:35;100328.50;;;10.64;87.13
71764;BME280;59602;52.142;5.408;2023-03-31T00:57:04;100324.63;;;10.65;87.29
71764;BME280;59602;52.142;5.408;2023-03-31T00:59:37;100325.00;;;10.64;87.33
71764;BME280;59602;52.142;5.408;2023-03-31T01:02:18;100323.44;;;10.63;87.44
71764;BME280;59602;52.142;5.408;2023-03-31T01:04:54;100318.00;;;10.66;87.50
71764;BME280;59602;52.142;5.408;2023-03-31T01:07:25;100315.28;;;10.70;87.57
71764;BME280;59602;52.142;5.408;2023-03-31T01:09:58;100305.19;;;10.70;87.59
71764;BME280;59602;52.142;5.408;2023-03-31T01:12:26;100303.22;;;10.74;87.58
71764;BME280;59602;52.142;5.408;2023-03-31T01:15:04;100300.91;;;10.76;87.56
71764;BME280;59602;52.142;5.408;2023-03-31T01:17:31;100291.16;;;10.79;87.52
71764;BME280;59602;52.142;5.408;2023-03-31T01:28:32;100262.78;;;10.84;89.43
71764;BME280;59602;52.142;5.408;2023-03-31T01:34:04;100248.03;;;10.81;90.02
71764;BME280;59602;52.142;5.408;2023-03-31T01:39:57;100235.59;;;10.80;90.44
71764;BME280;59602;52.142;5.408;2023-03-31T01:42:51;100221.22;;;10.79;90.95
71764;BME280;59602;52.142;5.408;2023-03-31T01:46:09;100223.97;;;10.79;91.11
71764;BME280;59602;52.142;5.408;2023-03-31T01:51:18;100201.44;;;10.79;91.34
71764;BME280;59602;52.142;5.408;2023-03-31T01:54:02;100199.09;;;10.81;91.32
71764;BME280;59602;52.142;5.408;2023-03-31T01:56:54;100192.09;;;10.80;91.39
71764;BME280;59602;52.142;5.408;2023-03-31T01:59:27;100189.38;;;10.80;91.89
71764;BME280;59602;52.142;5.408;2023-03-31T02:02:00;100185.88;;;10.79;92.09
71764;BME280;59602;52.142;5.408;2023-03-31T02:04:39;100181.22;;;10.80;92.00
71764;BME280;59602;52.142;5.408;2023-03-31T02:07:13;100169.19;;;10.81;92.19
71764;BME280;59602;52.142;5.408;2023-03-31T02:09:48;100168.81;;;10.79;92.18
71764;BME280;59602;52.142;5.408;2023-03-31T02:12:18;100164.50;;;10.82;91.94
71764;BME280;59602;52.142;5.408;2023-03-31T02:14:49;100162.16;;;10.84;92.34
71764;BME280;59602;52.142;5.408;2023-03-31T02:17:20;100156.34;;;10.82;92.24
71764;BME280;59602;52.142;5.408;2023-03-31T02:19:50;100151.66;;;10.86;92.36
71764;BME280;59602;52.142;5.408;2023-03-31T02:22:20;100143.88;;;10.88;92.30
71764;BME280;59602;52.142;5.408;2023-03-31T02:24:50;100132.59;;;10.89;92.37
71764;BME280;59602;52.142;5.408;2023-03-31T02:27:21;100137.66;;;10.87;92.46
71764;BME280;59602;52.142;5.408;2023-03-31T02:29:50;100129.50;;;10.87;92.82
71764;BME280;59602;52.142;5.408;2023-03-31T02:32:24;100118.22;;;10.89;92.73
71764;BME280;59602;52.142;5.408;2023-03-31T02:35:05;100114.38;;;10.86;92.84
71764;BME280;59602;52.142;5.408;2023-03-31T02:37:33;100100.38;;;10.88;92.76
71764;BME280;59602;52.142;5.408;2023-03-31T02:40:11;100091.03;;;10.89;92.76
71764;BME280;59602;52.142;5.408;2023-03-31T02:42:46;100088.69;;;10.87;93.20
71764;BME280;59602;52.142;5.408;2023-03-31T02:45:40;100083.25;;;10.87;93.19
71764;BME280;59602;52.142;5.408;2023-03-31T02:48:14;100072.81;;;10.86;93.14
71764;BME280;59602;52.142;5.408;2023-03-31T02:50:52;100070.47;;;10.88;93.12
71764;BME280;59602;52.142;5.408;2023-03-31T02:54:05;100059.56;;;10.88;93.59
71764;BME280;59602;52.142;5.408;2023-03-31T02:56:49;100052.16;;;10.92;93.38
71764;BME280;59602;52.142;5.408;2023-03-31T02:59:47;100047.50;;;10.89;93.40
71764;BME280;59602;52.142;5.408;2023-03-31T03:10:34;100009.41;;;10.92;93.88
71764;BME280;59602;52.142;5.408;2023-03-31T03:15:37;100001.66;;;10.91;93.67
71764;BME280;59602;52.142;5.408;2023-03-31T03:18:08;99996.59;;;10.89;93.69
71764;BME280;59602;52.142;5.408;2023-03-31T03:20:41;99990.03;;;10.87;93.94
71764;BME280;59602;52.142;5.408;2023-03-31T03:23:08;99981.50;;;10.85;93.67
71764;BME280;59602;52.142;5.408;2023-03-31T03:25:47;99976.84;;;10.85;93.67
71764;BME280;59602;52.142;5.408;2023-03-31T03:28:14;99976.88;;;10.82;93.79
71764;BME280;59602;52.142;5.408;2023-03-31T03:30:40;99976.09;;;10.81;93.87
71764;BME280;59602;52.142;5.408;2023-03-31T03:33:07;99974.16;;;10.82;93.86
71764;BME280;59602;52.142;5.408;2023-03-31T03:35:35;99972.56;;;10.84;93.72
71764;BME280;59602;52.142;5.408;2023-03-31T03:38:02;99961.72;;;10.80;93.53
71764;BME280;59602;52.142;5.408;2023-03-31T03:40:28;99955.13;;;10.78;93.82
71764;BME280;59602;52.142;5.408;2023-03-31T03:42:55;99951.66;;;10.77;93.92
71764;BME280;59602;52.142;5.408;2023-03-31T03:45:21;99943.88;;;10.79;93.89
71764;BME280;59602;52.142;5.408;2023-03-31T03:47:48;99930.28;;;10.79;94.01
71764;BME280;59602;52.142;5.408;2023-03-31T03:50:15;99922.94;;;10.76;94.06
71764;BME280;59602;52.142;5.408;2023-03-31T03:52:49;99918.25;;;10.77;94.20
71764;BME280;59602;52.142;5.408;2023-03-31T03:55:16;99924.09;;;10.75;93.95
71764;BME280;59602;52.142;5.408;2023-03-31T03:57:43;99909.72;;;10.75;94.25
71764;BME280;59602;52.142;5.408;2023-03-31T04:00:10;99910.13;;;10.73;94.18
71764;BME280;59602;52.142;5.408;2023-03-31T04:02:38;99898.09;;;10.74;94.24
71764;BME280;59602;52.142;5.408;2023-03-31T04:05:06;99895.78;;;10.73;94.26
71764;BME280;59602;52.142;5.408;2023-03-31T04:07:33;99902.78;;;10.70;94.05
71764;BME280;59602;52.142;5.408;2023-03-31T04:10:00;99895.78;;;10.69;94.61
71764;BME280;59602;52.142;5.408;2023-03-31T04:12:26;99889.59;;;10.69;94.23
71764;BME280;59602;52.142;5.408;2023-03-31T04:14:53;99879.13;;;10.67;93.97
71764;BME280;59602;52.142;5.408;2023-03-31T04:17:20;99872.13;;;10.66;94.04
71764;BME280;59602;52.142;5.408;2023-03-31T04:20:06;99868.66;;;10.66;94.09
71764;BME280;59602;52.142;5.408;2023-03-31T04:22:36;99859.75;;;10.62;94.03
71764;BME280;59602;52.142;5.408;2023-03-31T04:25:09;99842.63;;;10.65;93.96
71764;BME280;59602;52.142;5.408;2023-03-31T04:27:42;99837.19;;;10.65;93.42
71764;BME280;59602;52.142;5.408;2023-03-31T04:30:13;99825.94;;;10.63;93.44
71764;BME280;59602;52.142;5.408;2023-03-31T04:32:54;99817.47;;;10.61;93.65
71764;BME280;59602;52.142;5.408;2023-03-31T04:35:22;99805.78;;;10.60;93.54
71764;BME280;59602;52.142;5.408;2023-03-31T04:37:59;99794.19;;;10.56;93.65
71764;BME280;59602;52.142;5.408;2023-03-31T04:40:26;99793.03;;;10.57;93.86
71764;BME280;59602;52.142;5.408;2023-03-31T04:42:52;99789.53;;;10.56;94.23
71764;BME280;59602;52.142;5.408;2023-03-31T04:45:19;99779.06;;;10.55;94.16
71764;BME280;59602;52.142;5.408;2023-03-31T04:47:45;99771.31;;;10.53;94.30
71764;BME280;59602;52.142;5.408;2023-03-31T04:50:12;99775.97;;;10.53;94.30
71764;BME280;59602;52.142;5.408;2023-03-31T04:52:42;99769.78;;;10.52;94.70
71764;BME280;59602;52.142;5.408;2023-03-31T04:55:09;99765.09;;;10.53;94.48
71764;BME280;59602;52.142;5.408;2023-03-31T04:57:36;99757.72;;;10.53;94.48
71764;BME280;59602;52.142;5.408;2023-03-31T05:00:04;99755.00;;;10.53;94.54
71764;BME280;59602;52.142;5.408;2023-03-31T05:02:39;99753.41;;;10.56;94.64
71764;BME280;59602;52.142;5.408;2023-03-31T05:05:07;99740.63;;;10.53;95.06
71764;BME280;59602;52.142;5.408;2023-03-31T05:07:33;99740.63;;;10.53;94.79
71764;BME280;59602;52.142;5.408;2023-03-31T05:10:00;99735.56;;;10.55;94.81
71764;BME280;59602;52.142;5.408;2023-03-31T05:12:27;99722.75;;;10.55;94.61
71764;BME280;59602;52.142;5.408;2023-03-31T05:14:53;99723.50;;;10.56;94.93
71764;BME280;59602;52.142;5.408;2023-03-31T05:17:20;99709.16;;;10.55;94.80
71764;BME280;59602;52.142;5.408;2023-03-31T05:19:48;99702.56;;;10.56;94.88
71764;BME280;59602;52.142;5.408;2023-03-31T05:22:15;99705.28;;;10.56;95.20
71764;BME280;59602;52.142;5.408;2023-03-31T05:24:46;99700.59;;;10.57;95.13
71764;BME280;59602;52.142;5.408;2023-03-31T05:27:13;99690.88;;;10.59;95.03
71764;BME280;59602;52.142;5.408;2023-03-31T05:29:39;99696.28;;;10.59;94.99
71764;BME280;59602;52.142;5.408;2023-03-31T05:32:06;99688.16;;;10.59;94.95
71764;BME280;59602;52.142;5.408;2023-03-31T05:34:33;99690.88;;;10.59;94.88
71764;BME280;59602;52.142;5.408;2023-03-31T05:36:59;99686.63;;;10.58;95.04
71764;BME280;59602;52.142;5.408;2023-03-31T05:39:26;99678.09;;;10.56;95.17
71764;BME280;59602;52.142;5.408;2023-03-31T05:41:59;99683.91;;;10.58;95.35
71764;BME280;59602;52.142;5.408;2023-03-31T05:44:25;99667.97;;;10.61;94.95
71764;BME280;59602;52.142;5.408;2023-03-31T05:46:53;99666.75;;;10.62;95.10
71764;BME280;59602;52.142;5.408;2023-03-31T05:49:20;99659.81;;;10.61;95.27
71764;BME280;59602;52.142;5.408;2023-03-31T05:51:46;99662.09;;;10.62;95.21
71764;BME280;59602;52.142;5.408;2023-03-31T05:54:13;99655.53;;;10.59;95.52
71764;BME280;59602;52.142;5.408;2023-03-31T05:56:40;99645.03;;;10.62;95.41
71764;BME280;59602;52.142;5.408;2023-03-31T05:59:07;99646.16;;;10.64;95.07
71764;BME280;59602;52.142;5.408;2023-03-31T06:01:33;99646.53;;;10.63;94.95
71764;BME280;59602;52.142;5.408;2023-03-31T06:04:00;99643.06;;;10.62;95.11
71764;BME280;59602;52.142;5.408;2023-03-31T06:06:27;99643.44;;;10.64;94.95
71764;BME280;59602;52.142;5.408;2023-03-31T06:08:54;99634.50;;;10.64;95.00
71764;BME280;59602;52.142;5.408;2023-03-31T06:11:21;99631.03;;;10.63;95.34
71764;BME280;59602;52.142;5.408;2023-03-31T06:13:48;99634.09;;;10.65;95.04
71764;BME280;59602;52.142;5.408;2023-03-31T06:16:16;99630.19;;;10.66;95.02
71764;BME280;59602;52.142;5.408;2023-03-31T06:18:44;99626.66;;;10.69;95.19
71764;BME280;59602;52.142;5.408;2023-03-31T06:21:13;99617.34;;;10.70;94.92
71764;BME280;59602;52.142;5.408;2023-03-31T06:23:40;99616.56;;;10.70;94.54
71764;BME280;59602;52.142;5.408;2023-03-31T06:26:07;99624.66;;;10.73;94.36
71764;BME280;59602;52.142;5.408;2023-03-31T06:28:34;99617.28;;;10.74;94.74
71764;BME280;59602;52.142;5.408;2023-03-31T06:33:47;99613.38;;;10.75;94.28
71764;BME280;59602;52.142;5.408;2023-03-31T06:36:16;99608.66;;;10.79;94.19
71764;BME280;59602;52.142;5.408;2023-03-31T06:38:43;99611.75;;;10.81;93.92
71764;BME280;59602;52.142;5.408;2023-03-31T06:41:11;99604.72;;;10.84;93.67
71764;BME280;59602;52.142;5.408;2023-03-31T06:43:38;99602.34;;;10.86;93.72
71764;BME280;59602;52.142;5.408;2023-03-31T06:46:05;99596.47;;;10.87;93.79
71764;BME280;59602;52.142;5.408;2023-03-31T06:48:33;99598.44;;;10.87;93.50
71764;BME280;59602;52.142;5.408;2023-03-31T06:51:02;99596.47;;;10.87;93.85
71764;BME280;59602;52.142;5.408;2023-03-31T06:53:29;99604.63;;;10.87;93.80
71764;BME280;59602;52.142;5.408;2023-03-31T06:55:56;99600.00;;;10.88;93.89
71764;BME280;59602;52.142;5.408;2023-03-31T06:58:23;99583.69;;;10.88;93.66
71764;BME280;59602;52.142;5.408;2023-03-31T07:00:50;99582.47;;;10.89;94.00
71764;BME280;59602;52.142;5.408;2023-03-31T07:03:18;99592.97;;;10.90;93.75
71764;BME280;59602;52.142;5.408;2023-03-31T07:05:48;99591.00;;;10.91;93.72
71764;BME280;59602;52.142;5.408;2023-03-31T07:08:15;99591.34;;;10.93;93.74
71764;BME280;59602;52.142;5.408;2023-03-31T07:10:43;99586.63;;;10.97;93.99
71764;BME280;59602;52.142;5.408;2023-03-31T07:13:17;99585.88;;;10.96;93.85
71764;BME280;59602;52.142;5.408;2023-03-31T07:15:52;99588.59;;;10.96;93.73
71764;BME280;59602;52.142;5.408;2023-03-31T07:18:20;99581.19;;;10.97;93.55
71764;BME280;59602;52.142;5.408;2023-03-31T07:20:51;99591.69;;;10.98;93.63
71764;BME280;59602;52.142;5.408;2023-03-31T07:23:19;99587.41;;;10.97;93.59
71764;BME280;59602;52.142;5.408;2023-03-31T07:25:46;99585.03;;;10.99;93.85
71764;BME280;59602;52.142;5.408;2023-03-31T07:28:13;99573.31;;;11.02;93.90
71764;BME280;59602;52.142;5.408;2023-03-31T07:30:40;99573.31;;;11.02;94.06
71764;BME280;59602;52.142;5.408;2023-03-31T07:33:08;99581.91;;;11.01;94.25
71764;BME280;59602;52.142;5.408;2023-03-31T07:35:39;99574.13;;;11.03;93.90
71764;BME280;59602;52.142;5.408;2023-03-31T07:38:33;99575.28;;;11.02;93.93
71764;BME280;59602;52.142;5.408;2023-03-31T07:41:00;99567.06;;;11.06;94.21
71764;BME280;59602;52.142;5.408;2023-03-31T07:43:34;99570.16;;;11.08;93.94
71764;BME280;59602;52.142;5.408;2023-03-31T07:46:01;99570.16;;;11.08;94.35
71764;BME280;59602;52.142;5.408;2023-03-31T07:48:27;99563.16;;;11.07;94.28
71764;BME280;59602;52.142;5.408;2023-03-31T07:51:02;99558.47;;;11.07;94.45
71764;BME280;59602;52.142;5.408;2023-03-31T07:53:29;99555.75;;;11.07;94.60
71764;BME280;59602;52.142;5.408;2023-03-31T07:55:56;99558.84;;;11.09;94.53
71764;BME280;59602;52.142;5.408;2023-03-31T07:58:22;99545.22;;;11.09;94.72
71764;BME280;59602;52.142;5.408;2023-03-31T08:00:49;99551.47;;;11.10;94.91
71764;BME280;59602;52.142;5.408;2023-03-31T08:03:16;99549.91;;;11.09;95.06
71764;BME280;59602;52.142;5.408;2023-03-31T08:05:42;99554.59;;;11.08;95.09
71764;BME280;59602;52.142;5.408;2023-03-31T08:08:09;99549.88;;;11.12;94.85
71764;BME280;59602;52.142;5.408;2023-03-31T08:10:36;99547.06;;;11.16;94.91
71764;BME280;59602;52.142;5.408;2023-03-31T08:13:02;99542.41;;;11.16;94.70
71764;BME280;59602;52.142;5.408;2023-03-31T08:15:29;99535.72;;;11.21;94.93
71764;BME280;59602;52.142;5.408;2023-03-31T08:17:57;99528.59;;;11.27;95.22
71764;BME280;59602;52.142;5.408;2023-03-31T08:20:24;99530.44;;;11.34;95.20
71764;BME280;59602;52.142;5.408;2023-03-31T08:22:51;99532.69;;;11.39;94.94
71764;BME280;59602;52.142;5.408;2023-03-31T08:25:17;99527.09;;;11.46;94.85
71764;BME280;59602;52.142;5.408;2023-03-31T08:27:46;99534.72;;;11.55;94.67
71764;BME280;59602;52.142;5.408;2023-03-31T08:30:17;99523.06;;;11.54;94.32
71764;BME280;59602;52.142;5.408;2023-03-31T08:32:45;99515.81;;;11.48;94.73
71764;BME280;59602;52.142;5.408;2023-03-31T08:35:20;99522.41;;;11.47;94.62
71764;BME280;59602;52.142;5.408;2023-03-31T08:37:47;99527.50;;;11.45;95.01
71764;BME280;59602;52.142;5.408;2023-03-31T08:40:22;99519.44;;;11.41;94.76
71764;BME280;59602;52.142;5.408;2023-03-31T08:42:52;99513.28;;;11.37;94.50
71764;BME280;59602;52.142;5.408;2023-03-31T08:45:24;99510.81;;;11.42;95.04
71764;BME280;59602;52.142;5.408;2023-03-31T08:47:56;99503.38;;;11.47;95.04
71764;BME280;59602;52.142;5.408;2023-03-31T08:50:35;99511.03;;;11.52;94.85
71764;BME280;59602;52.142;5.408;2023-03-31T08:53:31;99498.56;;;11.54;94.81
71764;BME280;59602;52.142;5.408;2023-03-31T08:56:03;99488.78;;;11.57;94.10
71764;BME280;59602;52.142;5.408;2023-03-31T08:58:39;99494.25;;;11.57;94.33
71764;BME280;59602;52.142;5.408;2023-03-31T09:01:18;99496.88;;;11.60;94.29
71764;BME280;59602;52.142;5.408;2023-03-31T09:06:37;99491.31;;;11.68;94.69
71764;BME280;59602;52.142;5.408;2023-03-31T09:09:10;99496.31;;;11.69;94.58
71764;BME280;59602;52.142;5.408;2023-03-31T09:11:46;99486.97;;;11.70;94.53
71764;BME280;59602;52.142;5.408;2023-03-31T09:14:28;99477.97;;;11.73;94.97
71764;BME280;59602;52.142;5.408;2023-03-31T09:17:22;99477.53;;;11.75;94.80
71764;BME280;59602;52.142;5.408;2023-03-31T09:19:56;99479.41;;;11.78;95.05
71764;BME280;59602;52.142;5.408;2023-03-31T09:22:29;99473.13;;;11.81;95.25
71764;BME280;59602;52.142;5.408;2023-03-31T09:24:59;99469.91;;;11.86;95.00
71764;BME280;59602;52.142;5.408;2023-03-31T09:27:29;99476.09;;;11.90;94.68
71764;BME280;59602;52.142;5.408;2023-03-31T09:30:03;99464.28;;;11.97;94.91
71764;BME280;59602;52.142;5.408;2023-03-31T09:32:36;99468.09;;;11.99;94.46
71764;BME280;59602;52.142;5.408;2023-03-31T09:35:18;99463.66;;;12.05;94.52
71764;BME280;59602;52.142;5.408;2023-03-31T09:37:47;99463.44;;;12.16;94.81
71764;BME280;59602;52.142;5.408;2023-03-31T09:40:18;99464.47;;;12.22;94.38
71764;BME280;59602;52.142;5.408;2023-03-31T09:42:47;99460.13;;;12.25;94.20
71764;BME280;59602;52.142;5.408;2023-03-31T09:45:18;99466.44;;;12.22;93.81
71764;BME280;59602;52.142;5.408;2023-03-31T09:47:49;99460.28;;;12.18;93.55
71764;BME280;59602;52.142;5.408;2023-03-31T09:50:17;99461.56;;;12.13;93.28
71764;BME280;59602;52.142;5.408;2023-03-31T09:52:48;99462.16;;;12.21;93.05
71764;BME280;59602;52.142;5.408;2023-03-31T09:58:06;99449.50;;;12.31;93.05
71764;BME280;59602;52.142;5.408;2023-03-31T10:00:33;99459.53;;;12.34;92.77
71764;BME280;59602;52.142;5.408;2023-03-31T10:03:03;99458.25;;;12.38;92.85
71764;BME280;59602;52.142;5.408;2023-03-31T10:05:36;99451.53;;;12.43;92.61
71764;BME280;59602;52.142;5.408;2023-03-31T10:10:37;99444.72;;;12.51;91.99
71764;BME280;59602;52.142;5.408;2023-03-31T10:13:09;99451.63;;;12.56;91.41
71764;BME280;59602;52.142;5.408;2023-03-31T10:15:37;99449.47;;;12.63;92.09
71764;BME280;59602;52.142;5.408;2023-03-31T10:18:13;99436.03;;;12.73;91.68
71764;BME280;59602;52.142;5.408;2023-03-31T10:20:44;99437.88;;;12.76;90.90
71764;BME280;59602;52.142;5.408;2023-03-31T10:25:45;99429.16;;;12.81;90.06
71764;BME280;59602;52.142;5.408;2023-03-31T10:28:17;99426.34;;;12.84;88.84
71764;BME280;59602;52.142;5.408;2023-03-31T10:30:50;99418.84;;;12.88;88.02
71764;BME280;59602;52.142;5.408;2023-03-31T10:33:21;99424.13;;;12.96;88.52
71764;BME280;59602;52.142;5.408;2023-03-31T10:35:54;99420.31;;;13.06;88.03
71764;BME280;59602;52.142;5.408;2023-03-31T10:38:28;99419.34;;;13.13;88.83
71764;BME280;59602;52.142;5.408;2023-03-31T10:40:57;99414.56;;;13.17;88.21
71764;BME280;59602;52.142;5.408;2023-03-31T10:43:36;99410.47;;;13.25;86.45
71764;BME280;59602;52.142;5.408;2023-03-31T10:46:04;99406.38;;;13.33;87.37
71764;BME280;59602;52.142;5.408;2023-03-31T10:48:33;99400.91;;;13.33;85.63
71764;BME280;59602;52.142;5.408;2023-03-31T10:51:13;99406.03;;;13.31;85.31
71764;BME280;59602;52.142;5.408;2023-03-31T10:53:44;99411.91;;;13.29;85.82
71764;BME280;59602;52.142;5.408;2023-03-31T11:06:59;99404.53;;;13.14;85.72
71764;BME280;59602;52.142;5.408;2023-03-31T11:25:08;99399.50;;;12.83;87.04
71764;BME280;59602;52.142;5.408;2023-03-31T11:30:35;99387.50;;;12.80;87.47
71764;BME280;59602;52.142;5.408;2023-03-31T11:33:34;99384.44;;;12.78;87.66
71764;BME280;59602;52.142;5.408;2023-03-31T11:36:06;99390.41;;;12.73;87.52
71764;BME280;59602;52.142;5.408;2023-03-31T11:38:51;99381.22;;;12.67;87.63
71764;BME280;59602;52.142;5.408;2023-03-31T11:41:33;99363.91;;;12.74;88.63
71764;BME280;59602;52.142;5.408;2023-03-31T11:44:05;99382.13;;;12.77;88.03
71764;BME280;59602;52.142;5.408;2023-03-31T11:46:56;99381.63;;;12.82;87.60
71764;BME280;59602;52.142;5.408;2023-03-31T11:49:29;99381.84;;;12.87;88.38
71764;BME280;59602;52.142;5.408;2023-03-31T11:52:05;99394.38;;;12.85;87.27
71764;BME280;59602;52.142;5.408;2023-03-31T11:54:42;99395.69;;;12.80;87.44
71764;BME280;59602;52.142;5.408;2023-03-31T11:57:21;99392.19;;;12.80;87.41
71764;BME280;59602;52.142;5.408;2023-03-31T11:59:56;99392.53;;;12.82;88.01
71764;BME280;59602;52.142;5.408;2023-03-31T12:02:43;99386.28;;;12.81;87.77
71764;BME280;59602;52.142;5.408;2023-03-31T12:05:12;99391.38;;;12.66;87.83
71764;BME280;59602;52.142;5.408;2023-03-31T12:10:22;99397.78;;;12.43;89.21
71764;BME280;59602;52.142;5.408;2023-03-31T12:12:56;99394.53;;;12.32;89.58
71764;BME280;59602;52.142;5.408;2023-03-31T12:15:32;99380.59;;;12.30;90.22
71764;BME280;59602;52.142;5.408;2023-03-31T12:18:11;99369.84;;;12.39;90.95
71764;BME280;59602;52.142;5.408;2023-03-31T12:20:42;99365.91;;;12.40;91.15
71764;BME280;59602;52.142;5.408;2023-03-31T12:23:17;99366.88;;;12.34;90.50
71764;BME280;59602;52.142;5.408;2023-03-31T12:28:23;99363.72;;;12.19;91.41
71764;BME280;59602;52.142;5.408;2023-03-31T12:30:54;99365.94;;;12.24;91.07
71764;BME280;59602;52.142;5.408;2023-03-31T12:33:27;99366.44;;;12.19;91.87
71764;BME280;59602;52.142;5.408;2023-03-31T12:36:14;99369.69;;;12.14;91.66
71764;BME280;59602;52.142;5.408;2023-03-31T12:38:49;99362.38;;;12.11;92.35
71764;BME280;59602;52.142;5.408;2023-03-31T12:41:40;99363.13;;;12.11;92.36
71764;BME280;59602;52.142;5.408;2023-03-31T12:44:23;99354.88;;;12.15;91.50
71764;BME280;59602;52.142;5.408;2023-03-31T12:47:00;99355.66;;;12.15;92.45
71764;BME280;59602;52.142;5.408;2023-03-31T12:49:38;99343.47;;;12.20;92.44
71764;BME280;59602;52.142;5.408;2023-03-31T12:52:19;99336.81;;;12.21;92.43
71764;BME280;59602;52.142;5.408;2023-03-31T12:55:20;99344.81;;;12.12;92.61
71764;BME280;59602;52.142;5.408;2023-03-31T12:57:49;99333.84;;;12.15;92.31
71764;BME280;59602;52.142;5.408;2023-03-31T13:02:47;99323.38;;;12.30;92.23
71764;BME280;59602;52.142;5.408;2023-03-31T13:08:04;99320.50;;;12.50;92.42
71764;BME280;59602;52.142;5.408;2023-03-31T13:10:31;99323.91;;;12.54;92.14
71764;BME280;59602;52.142;5.408;2023-03-31T13:13:00;99318.78;;;12.56;91.86
71764;BME280;59602;52.142;5.408;2023-03-31T13:15:29;99318.88;;;12.53;91.65
71764;BME280;59602;52.142;5.408;2023-03-31T13:17:59;99299.88;;;12.49;91.26
71764;BME280;59602;52.142;5.408;2023-03-31T13:20:34;99307.41;;;12.45;90.85
71764;BME280;59602;52.142;5.408;2023-03-31T13:23:13;99307.16;;;12.39;91.38
71764;BME280;59602;52.142;5.408;2023-03-31T13:25:48;99293.63;;;12.36;91.28
71764;BME280;59602;52.142;5.408;2023-03-31T13:28:31;99296.34;;;12.36;91.50
71764;BME280;59602;52.142;5.408;2023-03-31T13:31:02;99295.59;;;12.35;90.92
71764;BME280;59602;52.142;5.408;2023-03-31T13:47:23;99290.66;;;12.30;91.84
71764;BME280;59602;52.142;5.408;2023-03-31T13:53:01;99279.91;;;12.39;91.17
71764;BME280;59602;52.142;5.408;2023-03-31T13:55:56;99279.72;;;12.46;91.16
71764;BME280;59602;52.142;5.408;2023-03-31T14:01:46;99274.72;;;12.58;91.66
71764;BME280;59602;52.142;5.408;2023-03-31T14:04:35;99273.09;;;12.60;92.50
71764;BME280;59602;52.142;5.408;2023-03-31T14:07:11;99269.19;;;12.61;91.98
71764;BME280;59602;52.142;5.408;2023-03-31T14:09:44;99267.56;;;12.64;91.87
71764;BME280;59602;52.142;5.408;2023-03-31T14:12:31;99266.47;;;12.61;91.41
71764;BME280;59602;52.142;5.408;2023-03-31T14:14:59;99270.91;;;12.55;91.80
71764;BME280;59602;52.142;5.408;2023-03-31T14:17:29;99278.75;;;12.53;91.35
71764;BME280;59602;52.142;5.408;2023-03-31T14:20:13;99264.78;;;12.51;91.50
71764;BME280;59602;52.142;5.408;2023-03-31T14:22:51;99252.03;;;12.61;91.63
71764;BME280;59602;52.142;5.408;2023-03-31T14:28:24;99247.69;;;12.63;91.47
71764;BME280;59602;52.142;5.408;2023-03-31T14:33:34;99249.56;;;12.66;91.34
71764;BME280;59602;52.142;5.408;2023-03-31T14:36:18;99236.25;;;12.69;90.97
71764;BME280;59602;52.142;5.408;2023-03-31T14:38:47;99234.38;;;12.65;91.25
71764;BME280;59602;52.142;5.408;2023-03-31T14:41:17;99237.56;;;12.64;91.08
71764;BME280;59602;52.142;5.408;2023-03-31T14:43:47;99233.41;;;12.59;90.99
71764;BME280;59602;52.142;5.408;2023-03-31T14:46:20;99227.97;;;12.59;90.94
71764;BME280;59602;52.142;5.408;2023-03-31T14:48:49;99233.84;;;12.58;90.63
71764;BME280;59602;52.142;5.408;2023-03-31T14:51:22;99224.22;;;12.53;90.95
71764;BME280;59602;52.142;5.408;2023-03-31T14:53:57;99235.09;;;12.40;90.62
71764;BME280;59602;52.142;5.408;2023-03-31T14:56:31;99228.50;;;12.25;90.56
71764;BME280;59602;52.142;5.408;2023-03-31T14:59:00;99245.97;;;12.11;90.57
71764;BME280;59602;52.142;5.408;2023-03-31T15:01:30;99243.81;;;12.19;91.53
71764;BME280;59602;52.142;5.408;2023-03-31T15:04:07;99247.47;;;12.29;90.91
71764;BME280;59602;52.142;5.408;2023-03-31T15:06:40;99239.88;;;12.36;90.98
71764;BME280;59602;52.142;5.408;2023-03-31T15:09:12;99240.13;;;12.42;91.22
71764;BME280;59602;52.142;5.408;2023-03-31T15:11:41;99233.44;;;12.43;91.31
71764;BME280;59602;52.142;5.408;2023-03-31T15:14:08;99227.25;;;12.42;91.40